sensor_id;sensor_type;location;lat;lon;timestamp;pressure;altitude;pressure_sealevel;temperature;humidity
18533;BME280;9396;51.510;11.934;2023-02-10T00:00:17;102313.94;;;-0.09;89.35
18533;BME280;9396;51.510;11.934;2023-02-10T00:02:43;102318.47;;;0.17;88.08
18533;BME280;9396;51.510;11.934;2023-02-10T00:05:10;102316.81;;;0.14;87.75
18533;BME280;9396;51.510;11.934;2023-02-10T00:07:38;102313.56;;;0.37;87.45
18533;BME280;9396;51.510;11.934;2023-02-10T00:10:05;102315.94;;;0.46;86.89
18533;BME280;9396;51.510;11.934;2023-02-10T00:12:35;102304.28;;;0.56;87.07
18533;BME280;9396;51.510;11.934;2023-02-10T00:15:02;102307.41;;;0.68;87.51
18533;BME280;9396;51.510;11.934;2023-02-10T00:17:29;102298.88;;;0.62;85.56
18533;BME280;9396;51.510;11.934;2023-02-10T00:19:55;102299.44;;;0.73;85.28
18533;BME280;9396;51.510;11.934;2023-02-10T00:22:22;102301.16;;;0.74;84.53
18533;BME280;9396;51.510;11.934;2023-02-10T00:24:50;102312.56;;;0.71;84.76
18533;BME280;9396;51.510;11.934;2023-02-10T00:27:16;102301.19;;;0.72;84.20
18533;BME280;9396;51.510;11.934;2023-02-10T00:29:48;102308.84;;;0.78;84.21
18533;BME280;9396;51.510;11.934;2023-02-10T00:32:14;102320.03;;;0.85;84.34
18533;BME280;9396;51.510;11.934;2023-02-10T00:34:42;102319.56;;;1.00;84.22
18533;BME280;9396;51.510;11.934;2023-02-10T00:37:09;102324.31;;;0.58;85.15
18533;BME280;9396;51.510;11.934;2023-02-10T00:39:35;102335.41;;;0.66;84.79
18533;BME280;9396;51.510;11.934;2023-02-10T00:42:04;102327.56;;;0.95;84.49
18533;BME280;9396;51.510;11.934;2023-02-10T00:44:30;102325.28;;;1.13;83.99
18533;BME280;9396;51.510;11.934;2023-02-10T00:46:57;102328.78;;;1.13;83.19
18533;BME280;9396;51.510;11.934;2023-02-10T00:49:23;102330.03;;;1.00;83.72
18533;BME280;9396;51.510;11.934;2023-02-10T00:51:50;102327.34;;;1.01;84.19
18533;BME280;9396;51.510;11.934;2023-02-10T00:54:17;102337.13;;;0.96;84.42
18533;BME280;9396;51.510;11.934;2023-02-10T00:56:44;102336.63;;;0.84;84.42
18533;BME280;9396;51.510;11.934;2023-02-10T00:59:13;102207.56;;;0.22;84.29
18533;BME280;9396;51.510;11.934;2023-02-10T01:01:40;102321.81;;;0.83;84.43
18533;BME280;9396;51.510;11.934;2023-02-10T01:04:07;102329.03;;;0.75;84.97
18533;BME280;9396;51.510;11.934;2023-02-10T01:06:34;102315.69;;;0.84;83.90
18533;BME280;9396;51.510;11.934;2023-02-10T01:09:00;102320.56;;;0.67;85.22
18533;BME280;9396;51.510;11.934;2023-02-10T01:11:27;102317.13;;;0.65;84.62
18533;BME280;9396;51.510;11.934;2023-02-10T01:13:54;102323.91;;;0.72;86.00
18533;BME280;9396;51.510;11.934;2023-02-10T01:16:22;102315.22;;;0.70;85.48
18533;BME280;9396;51.510;11.934;2023-02-10T01:18:48;102333.25;;;0.80;85.38
18533;BME280;9396;51.510;11.934;2023-02-10T01:21:17;102320.56;;;0.96;84.44
18533;BME280;9396;51.510;11.934;2023-02-10T01:23:44;102329.63;;;0.84;84.08
18533;BME280;9396;51.510;11.934;2023-02-10T01:26:12;102332.69;;;0.98;84.98
18533;BME280;9396;51.510;11.934;2023-02-10T01:28:39;102330.34;;;0.89;84.73
18533;BME280;9396;51.510;11.934;2023-02-10T01:31:06;102197.88;;;0.26;85.51
18533;BME280;9396;51.510;11.934;2023-02-10T01:33:34;102335.59;;;0.89;84.67
18533;BME280;9396;51.510;11.934;2023-02-10T01:36:03;102330.22;;;0.94;84.28
18533;BME280;9396;51.510;11.934;2023-02-10T01:38:31;102327.34;;;1.01;84.92
18533;BME280;9396;51.510;11.934;2023-02-10T01:40:57;102330.56;;;1.11;85.05
18533;BME280;9396;51.510;11.934;2023-02-10T01:43:24;102336.69;;;1.12;85.70
18533;BME280;9396;51.510;11.934;2023-02-10T01:45:50;102325.59;;;1.31;85.26
18533;BME280;9396;51.510;11.934;2023-02-10T01:48:17;102323.16;;;1.53;83.46
18533;BME280;9396;51.510;11.934;2023-02-10T01:50:48;102311.56;;;1.32;84.61
18533;BME280;9396;51.510;11.934;2023-02-10T01:53:18;102322.03;;;1.32;84.61
18533;BME280;9396;51.510;11.934;2023-02-10T01:55:48;102323.66;;;1.36;84.40
18533;BME280;9396;51.510;11.934;2023-02-10T01:58:18;102338.06;;;1.23;84.46
18533;BME280;9396;51.510;11.934;2023-02-10T02:00:46;102330.28;;;1.20;85.94
18533;BME280;9396;51.510;11.934;2023-02-10T02:03:13;102328.91;;;1.36;85.40
18533;BME280;9396;51.510;11.934;2023-02-10T02:05:42;102323.56;;;1.39;84.88
18533;BME280;9396;51.510;11.934;2023-02-10T02:08:13;102322.44;;;1.48;85.26
18533;BME280;9396;51.510;11.934;2023-02-10T02:10:53;102322.78;;;1.63;84.15
18533;BME280;9396;51.510;11.934;2023-02-10T02:13:31;102328.75;;;1.41;84.92
18533;BME280;9396;51.510;11.934;2023-02-10T02:16:07;102325.59;;;1.31;85.49
18533;BME280;9396;51.510;11.934;2023-02-10T02:18:41;102319.84;;;1.46;85.15
18533;BME280;9396;51.510;11.934;2023-02-10T02:24:47;102315.00;;;1.60;85.81
18533;BME280;9396;51.510;11.934;2023-02-10T02:27:46;102320.59;;;1.50;85.70
18533;BME280;9396;51.510;11.934;2023-02-10T02:33:28;102326.41;;;1.59;85.73
18533;BME280;9396;51.510;11.934;2023-02-10T02:36:01;102334.78;;;1.44;85.64
18533;BME280;9396;51.510;11.934;2023-02-10T02:38:29;102330.16;;;1.52;85.90
18533;BME280;9396;51.510;11.934;2023-02-10T02:40:56;102329.31;;;1.76;85.61
18533;BME280;9396;51.510;11.934;2023-02-10T02:43:23;102337.56;;;1.92;86.39
18533;BME280;9396;51.510;11.934;2023-02-10T02:45:55;102335.47;;;2.01;85.39
18533;BME280;9396;51.510;11.934;2023-02-10T02:48:42;102332.56;;;1.84;85.78
18533;BME280;9396;51.510;11.934;2023-02-10T02:51:19;102333.66;;;2.03;85.65
18533;BME280;9396;51.510;11.934;2023-02-10T02:53:54;102329.66;;;1.93;85.31
18533;BME280;9396;51.510;11.934;2023-02-10T02:56:31;102336.03;;;2.11;86.06
18533;BME280;9396;51.510;11.934;2023-02-10T02:59:03;102329.84;;;2.13;85.07
18533;BME280;9396;51.510;11.934;2023-02-10T03:01:37;102332.16;;;1.96;85.20
18533;BME280;9396;51.510;11.934;2023-02-10T03:04:07;102345.34;;;1.69;85.77
18533;BME280;9396;51.510;11.934;2023-02-10T03:06:37;102339.34;;;1.91;85.82
18533;BME280;9396;51.510;11.934;2023-02-10T03:09:04;102343.41;;;2.00;86.36
18533;BME280;9396;51.510;11.934;2023-02-10T03:11:30;102345.97;;;2.01;85.56
18533;BME280;9396;51.510;11.934;2023-02-10T03:13:57;102354.47;;;2.09;85.46
18533;BME280;9396;51.510;11.934;2023-02-10T03:16:24;102347.50;;;1.82;86.38
18533;BME280;9396;51.510;11.934;2023-02-10T03:18:50;102350.72;;;1.64;86.33
18533;BME280;9396;51.510;11.934;2023-02-10T03:21:18;102353.22;;;1.69;86.60
18533;BME280;9396;51.510;11.934;2023-02-10T03:23:45;102353.81;;;1.77;86.60
18533;BME280;9396;51.510;11.934;2023-02-10T03:26:11;102357.88;;;1.85;87.75
18533;BME280;9396;51.510;11.934;2023-02-10T03:28:38;102363.69;;;1.69;87.06
18533;BME280;9396;51.510;11.934;2023-02-10T03:31:07;102367.03;;;1.74;87.11
18533;BME280;9396;51.510;11.934;2023-02-10T03:33:34;102383.75;;;1.70;87.50
18533;BME280;9396;51.510;11.934;2023-02-10T03:36:01;102380.25;;;1.71;87.89
18533;BME280;9396;51.510;11.934;2023-02-10T03:38:29;102379.97;;;1.52;89.00
18533;BME280;9396;51.510;11.934;2023-02-10T03:40:56;102395.47;;;1.60;89.31
18533;BME280;9396;51.510;11.934;2023-02-10T03:43:22;102398.03;;;1.61;88.79
18533;BME280;9396;51.510;11.934;2023-02-10T03:45:49;102396.13;;;1.66;88.62
18533;BME280;9396;51.510;11.934;2023-02-10T03:48:16;102391.78;;;1.65;88.59
18533;BME280;9396;51.510;11.934;2023-02-10T03:50:42;102399.19;;;1.53;88.60
18533;BME280;9396;51.510;11.934;2023-02-10T03:53:09;102404.09;;;1.63;88.86
18533;BME280;9396;51.510;11.934;2023-02-10T03:55:38;102406.34;;;1.46;89.71
18533;BME280;9396;51.510;11.934;2023-02-10T03:58:04;102413.88;;;1.58;89.05
18533;BME280;9396;51.510;11.934;2023-02-10T04:00:32;102406.88;;;1.57;89.84
18533;BME280;9396;51.510;11.934;2023-02-10T04:02:58;102405.25;;;1.53;90.09
18533;BME280;9396;51.510;11.934;2023-02-10T04:05:25;102411.84;;;1.39;89.77
18533;BME280;9396;51.510;11.934;2023-02-10T04:07:52;102425.34;;;1.25;90.80
18533;BME280;9396;51.510;11.934;2023-02-10T04:10:18;102418.63;;;1.46;90.50
18533;BME280;9396;51.510;11.934;2023-02-10T04:12:47;102417.38;;;1.57;90.21
18533;BME280;9396;51.510;11.934;2023-02-10T04:15:14;102420.00;;;1.57;90.58
18533;BME280;9396;51.510;11.934;2023-02-10T04:17:41;102429.94;;;1.46;90.36
18533;BME280;9396;51.510;11.934;2023-02-10T04:20:08;102424.53;;;1.52;91.27
18533;BME280;9396;51.510;11.934;2023-02-10T04:22:34;102429.00;;;1.49;91.21
18533;BME280;9396;51.510;11.934;2023-02-10T04:25:01;102428.53;;;1.36;90.92
18533;BME280;9396;51.510;11.934;2023-02-10T04:27:28;102426.78;;;1.37;91.28
18533;BME280;9396;51.510;11.934;2023-02-10T04:29:56;102427.31;;;1.46;91.07
18533;BME280;9396;51.510;11.934;2023-02-10T04:32:22;102423.50;;;1.58;91.79
18533;BME280;9396;51.510;11.934;2023-02-10T04:34:49;102420.63;;;1.65;90.93
18533;BME280;9396;51.510;11.934;2023-02-10T04:37:16;102433.59;;;1.70;91.63
18533;BME280;9396;51.510;11.934;2023-02-10T04:39:43;102421.75;;;1.84;90.48
18533;BME280;9396;51.510;11.934;2023-02-10T04:42:10;102433.03;;;1.88;91.11
18533;BME280;9396;51.510;11.934;2023-02-10T04:44:36;102433.69;;;1.67;91.09
18533;BME280;9396;51.510;11.934;2023-02-10T04:47:05;102432.44;;;1.78;91.78
18533;BME280;9396;51.510;11.934;2023-02-10T04:49:31;102441.13;;;1.80;90.64
18533;BME280;9396;51.510;11.934;2023-02-10T04:51:58;102437.28;;;1.92;90.96
18533;BME280;9396;51.510;11.934;2023-02-10T04:54:24;102439.78;;;1.95;90.69
18533;BME280;9396;51.510;11.934;2023-02-10T04:56:51;102430.06;;;1.98;90.94
18533;BME280;9396;51.510;11.934;2023-02-10T04:59:18;102442.13;;;2.04;90.71
18533;BME280;9396;51.510;11.934;2023-02-10T05:01:44;102436.34;;;1.93;90.80
18533;BME280;9396;51.510;11.934;2023-02-10T05:04:12;102451.69;;;2.05;90.58
18533;BME280;9396;51.510;11.934;2023-02-10T05:06:39;102442.69;;;2.13;90.57
18533;BME280;9396;51.510;11.934;2023-02-10T05:09:05;102435.28;;;2.25;89.78
18533;BME280;9396;51.510;11.934;2023-02-10T05:11:32;102436.81;;;2.32;89.29
18533;BME280;9396;51.510;11.934;2023-02-10T05:13:59;102436.78;;;2.33;89.40
18533;BME280;9396;51.510;11.934;2023-02-10T05:16:25;102442.69;;;2.13;90.26
18533;BME280;9396;51.510;11.934;2023-02-10T05:18:52;102449.81;;;2.10;90.13
18533;BME280;9396;51.510;11.934;2023-02-10T05:21:20;102455.81;;;1.58;90.78
18533;BME280;9396;51.510;11.934;2023-02-10T05:23:46;102463.03;;;1.79;91.83
18533;BME280;9396;51.510;11.934;2023-02-10T05:26:13;102467.59;;;1.73;91.38
18533;BME280;9396;51.510;11.934;2023-02-10T05:28:40;102469.59;;;1.92;91.70
18533;BME280;9396;51.510;11.934;2023-02-10T05:31:06;102476.75;;;1.87;90.88
18533;BME280;9396;51.510;11.934;2023-02-10T05:33:33;102470.13;;;1.76;91.66
18533;BME280;9396;51.510;11.934;2023-02-10T05:36:01;102468.25;;;1.52;92.92
18533;BME280;9396;51.510;11.934;2023-02-10T05:38:29;102470.03;;;1.51;93.61
18533;BME280;9396;51.510;11.934;2023-02-10T05:40:55;102468.13;;;1.56;92.59
18533;BME280;9396;51.510;11.934;2023-02-10T05:43:22;102474.34;;;1.52;92.52
18533;BME280;9396;51.510;11.934;2023-02-10T05:45:49;102473.03;;;1.38;93.92
18533;BME280;9396;51.510;11.934;2023-02-10T05:48:15;102471.19;;;1.41;94.53
18533;BME280;9396;51.510;11.934;2023-02-10T05:50:42;102470.88;;;1.23;95.27
18533;BME280;9396;51.510;11.934;2023-02-10T05:53:09;102475.28;;;1.21;95.38
18533;BME280;9396;51.510;11.934;2023-02-10T05:55:37;102474.97;;;1.31;94.95
18533;BME280;9396;51.510;11.934;2023-02-10T05:58:03;102480.84;;;1.39;95.07
18533;BME280;9396;51.510;11.934;2023-02-10T06:00:30;102488.97;;;1.32;94.96
18533;BME280;9396;51.510;11.934;2023-02-10T06:02:56;102485.94;;;1.15;95.76
18533;BME280;9396;51.510;11.934;2023-02-10T06:05:23;102481.09;;;1.01;97.16
18533;BME280;9396;51.510;11.934;2023-02-10T06:07:50;102486.19;;;1.05;96.68
18533;BME280;9396;51.510;11.934;2023-02-10T06:10:17;102498.41;;;1.06;97.25
18533;BME280;9396;51.510;11.934;2023-02-10T06:12:45;102494.34;;;1.26;96.48
18533;BME280;9396;51.510;11.934;2023-02-10T06:15:12;102491.13;;;1.47;96.41
18533;BME280;9396;51.510;11.934;2023-02-10T06:17:38;102500.84;;;1.72;95.46
18533;BME280;9396;51.510;11.934;2023-02-10T06:20:06;102499.94;;;1.44;95.06
18533;BME280;9396;51.510;11.934;2023-02-10T06:22:33;102493.69;;;1.48;95.58
18533;BME280;9396;51.510;11.934;2023-02-10T06:24:59;102492.03;;;1.46;96.19
18533;BME280;9396;51.510;11.934;2023-02-10T06:27:26;102486.84;;;1.44;95.69
18533;BME280;9396;51.510;11.934;2023-02-10T06:29:54;102491.75;;;1.26;96.33
18533;BME280;9396;51.510;11.934;2023-02-10T06:32:20;102487.47;;;0.91;98.31
18533;BME280;9396;51.510;11.934;2023-02-10T06:34:47;102498.50;;;1.02;99.22
18533;BME280;9396;51.510;11.934;2023-02-10T06:37:14;102498.31;;;1.09;98.09
18533;BME280;9396;51.510;11.934;2023-02-10T06:39:40;102505.88;;;1.20;97.85
18533;BME280;9396;51.510;11.934;2023-02-10T06:42:07;102501.72;;;1.13;98.09
18533;BME280;9396;51.510;11.934;2023-02-10T06:44:33;102506.53;;;1.28;98.79
18533;BME280;9396;51.510;11.934;2023-02-10T06:47:01;102513.09;;;1.12;98.08
18533;BME280;9396;51.510;11.934;2023-02-10T06:49:28;102517.22;;;1.21;98.74
18533;BME280;9396;51.510;11.934;2023-02-10T06:51:55;102503.34;;;1.17;99.43
18533;BME280;9396;51.510;11.934;2023-02-10T06:54:21;102517.28;;;1.19;99.24
18533;BME280;9396;51.510;11.934;2023-02-10T06:56:48;102512.53;;;1.01;98.54
18533;BME280;9396;51.510;11.934;2023-02-10T06:59:15;102509.19;;;0.96;100.00
18533;BME280;9396;51.510;11.934;2023-02-10T07:01:42;102532.22;;;1.14;100.00
18533;BME280;9396;51.510;11.934;2023-02-10T07:04:10;102526.00;;;1.18;99.79
18533;BME280;9396;51.510;11.934;2023-02-10T07:06:37;102528.81;;;1.12;99.93
18533;BME280;9396;51.510;11.934;2023-02-10T07:09:03;102529.91;;;1.03;100.00
18533;BME280;9396;51.510;11.934;2023-02-10T07:11:30;102530.63;;;1.10;100.00
18533;BME280;9396;51.510;11.934;2023-02-10T07:13:57;102533.53;;;0.98;100.00
18533;BME280;9396;51.510;11.934;2023-02-10T07:16:23;102531.03;;;0.95;100.00
18533;BME280;9396;51.510;11.934;2023-02-10T07:18:50;102538.84;;;0.96;100.00
18533;BME280;9396;51.510;11.934;2023-02-10T07:21:18;102538.06;;;0.93;100.00
18533;BME280;9396;51.510;11.934;2023-02-10T07:23:45;102527.44;;;0.99;100.00
18533;BME280;9396;51.510;11.934;2023-02-10T07:26:11;102537.91;;;0.99;100.00
18533;BME280;9396;51.510;11.934;2023-02-10T07:28:38;102536.50;;;1.18;100.00
18533;BME280;9396;51.510;11.934;2023-02-10T07:31:05;102552.31;;;1.15;100.00
18533;BME280;9396;51.510;11.934;2023-02-10T07:33:31;102551.50;;;1.13;100.00
18533;BME280;9396;51.510;11.934;2023-02-10T07:35:59;102548.00;;;1.13;100.00
18533;BME280;9396;51.510;11.934;2023-02-10T07:38:29;102552.69;;;1.32;100.00
18533;BME280;9396;51.510;11.934;2023-02-10T07:40:55;102558.09;;;1.28;100.00
18533;BME280;9396;51.510;11.934;2023-02-10T07:43:22;102558.91;;;1.30;100.00
18533;BME280;9396;51.510;11.934;2023-02-10T07:45:49;102562.97;;;1.40;100.00
18533;BME280;9396;51.510;11.934;2023-02-10T07:48:16;102559.94;;;1.55;100.00
18533;BME280;9396;51.510;11.934;2023-02-10T07:50:43;102571.72;;;1.71;100.00
18533;BME280;9396;51.510;11.934;2023-02-10T07:53:10;102571.53;;;1.77;100.00
18533;BME280;9396;51.510;11.934;2023-02-10T07:55:38;102567.53;;;1.93;99.62
18533;BME280;9396;51.510;11.934;2023-02-10T07:58:05;102570.94;;;1.96;99.47
18533;BME280;9396;51.510;11.934;2023-02-10T08:00:32;102578.69;;;1.99;99.24
18533;BME280;9396;51.510;11.934;2023-02-10T08:02:59;102574.03;;;2.09;99.58
18533;BME280;9396;51.510;11.934;2023-02-10T08:05:26;102576.91;;;2.01;98.35
18533;BME280;9396;51.510;11.934;2023-02-10T08:07:53;102566.13;;;2.10;98.30
18533;BME280;9396;51.510;11.934;2023-02-10T08:10:20;102566.22;;;2.35;97.99
18533;BME280;9396;51.510;11.934;2023-02-10T08:12:48;102565.72;;;2.50;98.17
18533;BME280;9396;51.510;11.934;2023-02-10T08:15:15;102565.97;;;2.70;96.52
18533;BME280;9396;51.510;11.934;2023-02-10T08:17:42;102559.72;;;2.47;96.27
18533;BME280;9396;51.510;11.934;2023-02-10T08:20:10;102568.00;;;2.61;95.86
18533;BME280;9396;51.510;11.934;2023-02-10T08:22:37;102561.78;;;2.37;96.15
18533;BME280;9396;51.510;11.934;2023-02-10T08:25:04;102570.41;;;2.41;96.60
18533;BME280;9396;51.510;11.934;2023-02-10T08:27:31;102561.28;;;2.52;96.83
18533;BME280;9396;51.510;11.934;2023-02-10T08:29:59;102568.19;;;2.56;96.62
18533;BME280;9396;51.510;11.934;2023-02-10T08:32:25;102569.41;;;2.71;96.82
18533;BME280;9396;51.510;11.934;2023-02-10T08:34:52;102571.44;;;2.63;96.12
18533;BME280;9396;51.510;11.934;2023-02-10T08:37:19;102524.00;;;2.41;96.32
18533;BME280;9396;51.510;11.934;2023-02-10T08:39:46;102569.63;;;2.65;96.97
18533;BME280;9396;51.510;11.934;2023-02-10T08:42:13;102581.94;;;2.89;96.56
18533;BME280;9396;51.510;11.934;2023-02-10T08:44:40;102574.94;;;2.89;95.70
18533;BME280;9396;51.510;11.934;2023-02-10T08:47:08;102566.69;;;3.00;95.56
18533;BME280;9396;51.510;11.934;2023-02-10T08:49:36;102567.94;;;3.14;95.66
18533;BME280;9396;51.510;11.934;2023-02-10T08:52:03;102562.91;;;3.32;95.06
18533;BME280;9396;51.510;11.934;2023-02-10T08:54:30;102570.59;;;3.38;94.77
18533;BME280;9396;51.510;11.934;2023-02-10T08:56:57;102568.94;;;3.35;94.31
18533;BME280;9396;51.510;11.934;2023-02-10T08:59:23;102569.97;;;3.31;94.06
18533;BME280;9396;51.510;11.934;2023-02-10T09:01:50;102555.56;;;3.41;94.37
18533;BME280;9396;51.510;11.934;2023-02-10T09:04:18;102564.09;;;3.23;94.61
18533;BME280;9396;51.510;11.934;2023-02-10T09:06:45;102557.91;;;3.25;94.64
18533;BME280;9396;51.510;11.934;2023-02-10T09:09:14;102560.03;;;3.14;94.81
18533;BME280;9396;51.510;11.934;2023-02-10T09:11:41;102569.44;;;3.21;95.17
18533;BME280;9396;51.510;11.934;2023-02-10T09:14:09;102556.47;;;3.15;95.36
18533;BME280;9396;51.510;11.934;2023-02-10T09:16:36;102567.06;;;3.14;95.11
18533;BME280;9396;51.510;11.934;2023-02-10T09:19:02;102574.13;;;3.12;95.34
18533;BME280;9396;51.510;11.934;2023-02-10T09:21:31;102568.38;;;3.01;95.97
18533;BME280;9396;51.510;11.934;2023-02-10T09:23:57;102570.53;;;2.90;96.28
18533;BME280;9396;51.510;11.934;2023-02-10T09:26:24;102576.63;;;2.92;96.76
18533;BME280;9396;51.510;11.934;2023-02-10T09:28:51;102569.38;;;2.98;96.72
18533;BME280;9396;51.510;11.934;2023-02-10T09:31:18;102564.31;;;2.92;97.26
18533;BME280;9396;51.510;11.934;2023-02-10T09:33:45;102574.28;;;2.83;97.15
18533;BME280;9396;51.510;11.934;2023-02-10T09:36:15;102574.38;;;2.80;97.77
18533;BME280;9396;51.510;11.934;2023-02-10T09:38:43;102574.00;;;2.90;97.66
18533;BME280;9396;51.510;11.934;2023-02-10T09:41:17;102570.44;;;2.93;97.80
18533;BME280;9396;51.510;11.934;2023-02-10T09:44:03;102570.22;;;2.99;98.68
18533;BME280;9396;51.510;11.934;2023-02-10T09:46:41;102567.31;;;3.06;97.29
18533;BME280;9396;51.510;11.934;2023-02-10T09:49:21;102569.75;;;3.12;97.04
18533;BME280;9396;51.510;11.934;2023-02-10T09:51:58;102574.38;;;3.06;97.49
18533;BME280;9396;51.510;11.934;2023-02-10T09:54:30;102577.88;;;3.05;97.35
18533;BME280;9396;51.510;11.934;2023-02-10T09:57:00;102575.94;;;3.11;97.37
18533;BME280;9396;51.510;11.934;2023-02-10T09:59:28;102584.06;;;3.04;97.21
18533;BME280;9396;51.510;11.934;2023-02-10T10:01:57;102580.75;;;2.99;97.53
18533;BME280;9396;51.510;11.934;2023-02-10T10:04:27;102575.38;;;3.02;97.94
18533;BME280;9396;51.510;11.934;2023-02-10T10:07:02;102580.81;;;2.96;98.37
18533;BME280;9396;51.510;11.934;2023-02-10T10:09:35;102566.16;;;3.15;97.94
18533;BME280;9396;51.510;11.934;2023-02-10T10:12:09;102566.75;;;3.23;97.32
18533;BME280;9396;51.510;11.934;2023-02-10T10:14:38;102573.13;;;3.16;97.57
18533;BME280;9396;51.510;11.934;2023-02-10T10:17:14;102580.31;;;3.11;97.39
18533;BME280;9396;51.510;11.934;2023-02-10T10:19:56;102570.00;;;3.05;97.03
18533;BME280;9396;51.510;11.934;2023-02-10T10:22:47;102568.00;;;3.13;97.45
18533;BME280;9396;51.510;11.934;2023-02-10T10:25:40;102563.63;;;3.12;97.40
18533;BME280;9396;51.510;11.934;2023-02-10T10:28:19;102565.81;;;3.24;97.40
18533;BME280;9396;51.510;11.934;2023-02-10T10:30:53;102560.91;;;3.40;96.84
18533;BME280;9396;51.510;11.934;2023-02-10T10:33:23;102560.03;;;3.39;96.95
18533;BME280;9396;51.510;11.934;2023-02-10T10:35:51;102561.97;;;3.34;96.74
18533;BME280;9396;51.510;11.934;2023-02-10T10:38:21;102570.19;;;3.25;97.04
18533;BME280;9396;51.510;11.934;2023-02-10T10:40:52;102558.72;;;3.26;96.35
18533;BME280;9396;51.510;11.934;2023-02-10T10:43:23;102561.28;;;3.29;97.49
18533;BME280;9396;51.510;11.934;2023-02-10T10:45:53;102563.94;;;3.27;97.54
18533;BME280;9396;51.510;11.934;2023-02-10T10:48:24;102563.09;;;3.27;97.29
18533;BME280;9396;51.510;11.934;2023-02-10T10:50:54;102564.09;;;3.23;97.60
18533;BME280;9396;51.510;11.934;2023-02-10T10:53:30;102562.28;;;3.25;97.99
18533;BME280;9396;51.510;11.934;2023-02-10T10:56:01;102562.16;;;3.28;97.98
18533;BME280;9396;51.510;11.934;2023-02-10T10:58:33;102566.72;;;3.48;97.46
18533;BME280;9396;51.510;11.934;2023-02-10T11:01:02;102558.81;;;3.48;97.55
18533;BME280;9396;51.510;11.934;2023-02-10T11:03:29;102556.38;;;3.43;96.83
18533;BME280;9396;51.510;11.934;2023-02-10T11:06:00;102560.84;;;3.41;97.35
18533;BME280;9396;51.510;11.934;2023-02-10T11:08:30;102559.16;;;3.39;97.53
18533;BME280;9396;51.510;11.934;2023-02-10T11:11:02;102564.16;;;3.46;97.35
18533;BME280;9396;51.510;11.934;2023-02-10T11:13:36;102563.47;;;3.41;97.35
18533;BME280;9396;51.510;11.934;2023-02-10T11:16:05;102562.44;;;3.45;97.30
18533;BME280;9396;51.510;11.934;2023-02-10T11:18:33;102557.22;;;3.44;96.79
18533;BME280;9396;51.510;11.934;2023-02-10T11:21:01;102558.63;;;3.54;97.24
18533;BME280;9396;51.510;11.934;2023-02-10T11:23:29;102548.53;;;3.42;96.96
18533;BME280;9396;51.510;11.934;2023-02-10T11:25:59;102554.75;;;3.39;97.26
18533;BME280;9396;51.510;11.934;2023-02-10T11:28:29;102556.13;;;3.49;97.48
18533;BME280;9396;51.510;11.934;2023-02-10T11:30:58;102550.13;;;3.46;97.39
18533;BME280;9396;51.510;11.934;2023-02-10T11:33:29;102554.69;;;3.41;97.96
18533;BME280;9396;51.510;11.934;2023-02-10T11:36:01;102557.97;;;3.47;97.77
18533;BME280;9396;51.510;11.934;2023-02-10T11:38:28;102549.00;;;3.53;97.77
18533;BME280;9396;51.510;11.934;2023-02-10T11:40:56;102554.16;;;3.56;97.97
18533;BME280;9396;51.510;11.934;2023-02-10T11:43:29;102547.06;;;3.58;97.64
18533;BME280;9396;51.510;11.934;2023-02-10T11:45:58;102549.97;;;3.73;97.39
18533;BME280;9396;51.510;11.934;2023-02-10T11:48:26;102549.69;;;3.81;96.59
18533;BME280;9396;51.510;11.934;2023-02-10T11:51:05;102553.81;;;3.88;96.22
18533;BME280;9396;51.510;11.934;2023-02-10T11:53:34;102545.19;;;3.84;95.93
18533;BME280;9396;51.510;11.934;2023-02-10T11:56:05;102533.75;;;4.07;95.43
18533;BME280;9396;51.510;11.934;2023-02-10T11:58:59;102528.97;;;3.95;95.86
18533;BME280;9396;51.510;11.934;2023-02-10T12:01:53;102533.16;;;4.00;95.50
18533;BME280;9396;51.510;11.934;2023-02-10T12:04:43;102531.91;;;4.09;96.09
18533;BME280;9396;51.510;11.934;2023-02-10T12:07:20;102522.00;;;4.15;95.65
18533;BME280;9396;51.510;11.934;2023-02-10T12:09:52;102516.66;;;4.17;95.59
18533;BME280;9396;51.510;11.934;2023-02-10T12:12:26;102515.50;;;4.24;95.08
18533;BME280;9396;51.510;11.934;2023-02-10T12:15:06;102510.59;;;4.36;94.75
18533;BME280;9396;51.510;11.934;2023-02-10T12:17:40;102486.94;;;4.35;94.94
18533;BME280;9396;51.510;11.934;2023-02-10T12:20:25;102502.19;;;4.49;94.64
18533;BME280;9396;51.510;11.934;2023-02-10T12:23:07;102492.19;;;4.57;93.81
18533;BME280;9396;51.510;11.934;2023-02-10T12:25:41;102497.72;;;4.71;94.54
18533;BME280;9396;51.510;11.934;2023-02-10T12:28:15;102327.63;;;3.83;93.58
18533;BME280;9396;51.510;11.934;2023-02-10T12:30:53;102486.59;;;4.84;92.84
18533;BME280;9396;51.510;11.934;2023-02-10T12:33:39;102479.06;;;4.95;93.36
18533;BME280;9396;51.510;11.934;2023-02-10T12:36:14;102496.81;;;5.12;93.38
18533;BME280;9396;51.510;11.934;2023-02-10T12:39:04;102484.25;;;5.17;92.25
18533;BME280;9396;51.510;11.934;2023-02-10T12:41:40;102486.91;;;5.17;91.14
18533;BME280;9396;51.510;11.934;2023-02-10T12:44:20;102488.63;;;5.18;91.19
18533;BME280;9396;51.510;11.934;2023-02-10T12:47:00;102490.97;;;5.24;90.79
18533;BME280;9396;51.510;11.934;2023-02-10T12:49:41;102487.16;;;5.11;91.47
18533;BME280;9396;51.510;11.934;2023-02-10T12:52:14;102478.00;;;5.19;90.79
18533;BME280;9396;51.510;11.934;2023-02-10T12:54:47;102484.78;;;5.25;90.89
18533;BME280;9396;51.510;11.934;2023-02-10T12:57:19;102482.41;;;5.19;90.55
18533;BME280;9396;51.510;11.934;2023-02-10T12:59:53;102479.84;;;5.17;90.46
18533;BME280;9396;51.510;11.934;2023-02-10T13:02:27;102485.69;;;5.05;90.40
18533;BME280;9396;51.510;11.934;2023-02-10T13:05:00;102485.88;;;5.01;90.62
18533;BME280;9396;51.510;11.934;2023-02-10T13:07:35;102491.13;;;5.01;90.90
18533;BME280;9396;51.510;11.934;2023-02-10T13:10:15;102490.34;;;4.99;91.25
18533;BME280;9396;51.510;11.934;2023-02-10T13:12:44;102505.13;;;5.03;90.59
18533;BME280;9396;51.510;11.934;2023-02-10T13:15:15;102498.00;;;5.05;90.48
18533;BME280;9396;51.510;11.934;2023-02-10T13:17:48;102486.00;;;5.18;90.26